createdAt,value
2018-01-28T00:01:43.985Z,62.03
2018-01-28T00:04:12.371Z,57.33
2018-01-28T00:06:40.661Z,59.73
2018-01-28T00:09:09.919Z,53.20
2018-01-28T00:11:38.305Z,56.30
2018-01-28T00:14:07.601Z,43.83
2018-01-28T00:16:36.827Z,59.80
2018-01-28T00:19:05.322Z,41.43
2018-01-28T00:21:33.954Z,45.80
2018-01-28T00:24:02.640Z,51.97
2018-01-28T00:26:31.126Z,45.70
2018-01-28T00:28:59.514Z,49.27
2018-01-28T00:31:27.994Z,42.63
2018-01-28T00:33:56.682Z,43.45
2018-01-28T00:36:25.436Z,38.67
2018-01-28T00:38:54.856Z,43.28
2018-01-28T00:41:23.297Z,48.73
2018-01-28T00:43:51.950Z,38.33
2018-01-28T00:46:20.334Z,38.03
2018-01-28T00:48:48.666Z,40.03
2018-01-28T00:51:16.376Z,36.10
2018-01-28T00:53:45.022Z,42.30
2018-01-28T00:56:13.554Z,38.27
2018-01-28T00:58:42.801Z,39.07
2018-01-28T01:01:11.289Z,28.37
2018-01-28T01:03:40.689Z,31.00
2018-01-28T01:06:08.937Z,34.00
2018-01-28T01:08:37.544Z,28.90
2018-01-28T01:11:05.933Z,29.90
2018-01-28T01:13:34.378Z,37.33
2018-01-28T01:16:03.040Z,36.90
2018-01-28T01:18:31.379Z,39.95
2018-01-28T01:21:00.144Z,28.80
2018-01-28T01:23:28.612Z,33.87
2018-01-28T01:25:57.108Z,36.70
2018-01-28T01:28:25.838Z,31.80
2018-01-28T01:30:54.976Z,32.93
2018-01-28T01:33:24.410Z,35.42
2018-01-28T01:35:53.078Z,35.13
2018-01-28T01:38:21.726Z,37.83
2018-01-28T01:40:50.394Z,35.83
2018-01-28T01:43:19.337Z,36.67
2018-01-28T01:45:47.719Z,40.43
2018-01-28T01:48:16.318Z,36.77
2018-01-28T01:50:44.705Z,38.63
2018-01-28T01:53:13.877Z,32.37
2018-01-28T01:55:42.542Z,37.13
2018-01-28T01:58:10.926Z,33.03
2018-01-28T02:00:39.609Z,30.90
2018-01-28T02:03:09.044Z,34.25
2018-01-28T02:05:37.901Z,37.50
2018-01-28T02:08:06.285Z,34.90
2018-01-28T02:10:34.681Z,34.67
2018-01-28T02:13:03.054Z,35.57
2018-01-28T02:15:31.709Z,34.72
2018-01-28T02:18:00.184Z,32.33
2018-01-28T02:20:29.609Z,33.10
2018-01-28T02:22:58.257Z,32.78
2018-01-28T02:25:27.163Z,34.47
2018-01-28T02:27:56.580Z,36.25
2018-01-28T02:30:25.989Z,37.65
2018-01-28T02:32:54.377Z,33.97
2018-01-28T02:35:22.753Z,32.23
2018-01-28T02:37:51.326Z,37.20
2018-01-28T02:40:19.716Z,33.10
2018-01-28T02:42:48.218Z,29.80
2018-01-28T02:45:16.885Z,30.52
2018-01-28T02:47:45.266Z,34.07
2018-01-28T02:50:14.010Z,31.60
2018-01-28T02:52:42.506Z,33.90
2018-01-28T02:55:10.978Z,33.65
2018-01-28T02:57:39.554Z,30.40
2018-01-28T03:00:08.313Z,33.05
2018-01-28T03:02:37.470Z,28.17
2018-01-28T03:05:06.130Z,32.08
2018-01-28T03:07:34.501Z,29.10
2018-01-28T03:10:02.888Z,31.70
2018-01-28T03:12:32.298Z,23.65
2018-01-28T03:15:00.671Z,29.40
2018-01-28T03:17:29.345Z,25.65
2018-01-28T03:19:57.869Z,24.53
2018-01-28T03:22:26.590Z,22.90
2018-01-28T03:24:56.009Z,29.58
2018-01-28T03:27:25.449Z,28.35
2018-01-28T03:29:53.833Z,22.87
2018-01-28T03:32:22.303Z,25.43
2018-01-28T03:34:50.501Z,28.23
2018-01-28T03:37:18.850Z,20.17
2018-01-28T03:39:47.237Z,28.27
2018-01-28T03:42:15.818Z,20.80
2018-01-28T03:44:44.498Z,20.87
2018-01-28T03:47:12.993Z,18.57
2018-01-28T03:49:41.450Z,25.70
2018-01-28T03:52:09.914Z,19.03
2018-01-28T03:54:38.302Z,17.53
2018-01-28T03:57:06.673Z,23.63
2018-01-28T03:59:35.182Z,23.83
2018-01-28T04:02:04.582Z,18.77
2018-01-28T04:04:33.306Z,21.50
2018-01-28T04:07:02.461Z,26.03
2018-01-28T04:09:30.846Z,18.90
2018-01-28T04:11:59.262Z,24.07
2018-01-28T04:14:27.918Z,21.55
2018-01-28T04:16:56.305Z,24.83
2018-01-28T04:19:24.303Z,24.50
2018-01-28T04:21:52.957Z,25.07
2018-01-28T04:24:21.496Z,22.30
2018-01-28T04:26:50.071Z,29.67
2018-01-28T04:29:18.767Z,27.57
2018-01-28T04:31:47.361Z,27.80
2018-01-28T04:34:16.114Z,29.58
2018-01-28T04:36:44.800Z,28.40
2018-01-28T04:39:13.291Z,23.70
2018-01-28T04:41:41.674Z,27.63
2018-01-28T04:44:10.354Z,34.27
2018-01-28T04:46:38.866Z,28.77
2018-01-28T04:49:07.712Z,27.43
2018-01-28T04:51:36.317Z,27.30
2018-01-28T04:54:04.705Z,26.83
2018-01-28T04:56:33.102Z,30.87
2018-01-28T04:59:01.286Z,32.77
2018-01-28T05:01:30.189Z,31.60
2018-01-28T05:03:59.511Z,25.77
2018-01-28T05:06:28.036Z,33.37
2018-01-28T05:08:56.553Z,30.77
2018-01-28T05:11:24.869Z,29.67
2018-01-28T05:13:53.337Z,28.67
2018-01-28T05:16:21.545Z,29.50
2018-01-28T05:18:49.759Z,27.40
2018-01-28T05:21:18.014Z,40.57
2018-01-28T05:23:46.214Z,30.87
2018-01-28T05:26:14.465Z,31.00
2018-01-28T05:28:43.741Z,32.87
2018-01-28T05:31:12.697Z,31.48
2018-01-28T05:33:41.085Z,27.17
2018-01-28T05:36:09.667Z,27.80
2018-01-28T05:38:38.326Z,31.23
2018-01-28T05:41:06.986Z,32.03
2018-01-28T05:43:35.642Z,37.17
2018-01-28T05:46:04.026Z,39.33
2018-01-28T05:48:32.410Z,35.93
2018-01-28T05:51:00.786Z,30.87
2018-01-28T05:53:29.012Z,27.47
2018-01-28T05:55:57.449Z,30.27
2018-01-28T05:58:26.130Z,27.33
2018-01-28T06:00:54.798Z,31.08
2018-01-28T06:03:23.201Z,37.60
2018-01-28T06:05:52.469Z,33.40
2018-01-28T06:08:21.369Z,31.62
2018-01-28T06:10:50.473Z,30.25
2018-01-28T06:13:18.849Z,37.00
2018-01-28T06:15:47.517Z,35.65
2018-01-28T06:18:16.181Z,29.20
2018-01-28T06:20:44.831Z,33.75
2018-01-28T06:23:13.511Z,41.83
2018-01-28T06:25:42.161Z,32.22
2018-01-28T06:28:10.803Z,38.97
2018-01-28T06:30:39.286Z,30.63
2018-01-28T06:33:07.985Z,35.30
2018-01-28T06:35:36.360Z,32.90
2018-01-28T06:38:05.586Z,35.43
2018-01-28T06:40:34.010Z,29.00
2018-01-28T06:43:03.252Z,32.87
2018-01-28T06:45:31.906Z,32.90
2018-01-28T06:48:00.658Z,30.30
2018-01-28T06:50:29.134Z,31.77
2018-01-28T06:52:57.598Z,37.73
2018-01-28T06:55:26.226Z,33.83
2018-01-28T06:57:54.873Z,33.85
2018-01-28T07:00:24.040Z,30.47
2018-01-28T07:02:52.694Z,32.77
2018-01-28T07:05:21.079Z,33.33
2018-01-28T07:07:49.465Z,30.30
2018-01-28T07:10:18.885Z,31.52
2018-01-28T07:12:47.537Z,36.90
2018-01-28T07:15:15.733Z,30.27
2018-01-28T07:17:44.109Z,32.60
2018-01-28T07:20:12.761Z,30.50
2018-01-28T07:22:41.148Z,31.87
2018-01-28T07:25:09.533Z,34.17
2018-01-28T07:27:38.941Z,32.90
2018-01-28T07:30:07.334Z,30.13
2018-01-28T07:32:35.999Z,33.50
2018-01-28T07:35:06.188Z,31.70
2018-01-28T07:37:35.283Z,26.47
2018-01-28T07:40:03.857Z,26.97
2018-01-28T07:42:32.271Z,27.50
2018-01-28T07:45:01.136Z,24.20
2018-01-28T07:47:29.553Z,28.37
2018-01-28T07:49:59.269Z,26.83
2018-01-28T07:52:27.937Z,28.25
2018-01-28T07:54:57.152Z,27.97
2018-01-28T07:57:26.193Z,23.87
2018-01-28T07:59:55.377Z,25.70
2018-01-28T08:02:23.765Z,28.37
2018-01-28T08:04:53.143Z,25.43
2018-01-28T08:07:22.356Z,21.83
2018-01-28T08:10:06.673Z,24.70
2018-01-28T08:12:37.343Z,26.00
2018-01-28T08:15:05.717Z,25.00
2018-01-28T08:17:34.261Z,26.33
2018-01-28T08:20:02.939Z,24.63
2018-01-28T08:22:31.454Z,26.57
2018-01-28T08:24:59.819Z,27.40
2018-01-28T08:27:29.979Z,25.13
2018-01-28T08:29:58.447Z,23.05
2018-01-28T08:32:27.017Z,27.30
2018-01-28T08:34:55.405Z,22.47
2018-01-28T08:37:24.557Z,31.27
2018-01-28T08:39:52.928Z,26.03
2018-01-28T08:42:21.322Z,24.37
2018-01-28T08:44:50.083Z,29.92
2018-01-28T08:47:18.370Z,22.70
2018-01-28T08:49:46.774Z,23.60
2018-01-28T08:52:15.657Z,22.40
2018-01-28T08:54:44.306Z,26.53
2018-01-28T08:57:13.742Z,21.42
2018-01-28T08:59:42.390Z,25.02
2018-01-28T09:02:10.902Z,24.10
2018-01-28T09:04:39.664Z,27.42
2018-01-28T09:07:08.357Z,19.07
2018-01-28T09:09:36.753Z,20.93
2018-01-28T09:12:05.417Z,22.00
2018-01-28T09:14:34.841Z,19.62
2018-01-28T09:17:04.130Z,24.60
2018-01-28T09:19:32.525Z,20.50
2018-01-28T09:22:00.967Z,20.80
2018-01-28T09:24:30.382Z,19.23
2018-01-28T09:26:58.781Z,22.07
2018-01-28T09:29:27.157Z,19.97
2018-01-28T09:31:55.535Z,21.97
2018-01-28T09:34:24.189Z,28.98
2018-01-28T09:36:52.591Z,18.80
2018-01-28T09:39:20.974Z,25.00
2018-01-28T09:41:49.373Z,28.50
2018-01-28T09:44:17.806Z,22.97
2018-01-28T09:46:47.227Z,21.73
2018-01-28T09:49:15.882Z,20.63
2018-01-28T09:51:45.328Z,21.17
2018-01-28T09:54:14.994Z,22.10
2018-01-28T09:56:44.197Z,20.40
2018-01-28T09:59:12.889Z,19.07
2018-01-28T10:01:41.603Z,18.27
2018-01-28T10:04:10.408Z,17.93
2018-01-28T10:06:39.859Z,17.80
2018-01-28T10:09:07.906Z,18.70
2018-01-28T10:11:37.054Z,16.27
2018-01-28T10:14:05.194Z,17.97
2018-01-28T10:16:33.630Z,17.90
2018-01-28T10:19:02.018Z,15.37
2018-01-28T10:21:31.376Z,16.97
2018-01-28T10:24:00.570Z,15.70
2018-01-28T10:26:29.890Z,15.97
2018-01-28T10:28:58.272Z,22.43
2018-01-28T10:31:26.734Z,19.10
2018-01-28T10:33:55.134Z,15.57
2018-01-28T10:36:23.536Z,14.90
2018-01-28T10:38:52.682Z,14.57
2018-01-28T10:41:21.290Z,16.57
2018-01-28T10:43:49.749Z,12.90
2018-01-28T10:46:18.017Z,13.87
2018-01-28T10:48:47.724Z,14.77
2018-01-28T10:51:16.161Z,12.73
2018-01-28T10:53:45.117Z,12.73
2018-01-28T10:56:13.513Z,16.00
2018-01-28T10:58:42.061Z,11.30
2018-01-28T11:01:10.441Z,12.40
2018-01-28T11:03:38.828Z,13.03
2018-01-28T11:06:07.285Z,13.43
2018-01-28T11:08:35.665Z,10.07
2018-01-28T11:11:04.086Z,15.17
2018-01-28T11:13:32.666Z,11.17
2018-01-28T11:16:01.298Z,9.43
2018-01-28T11:18:29.998Z,9.90
2018-01-28T11:20:58.381Z,13.73
2018-01-28T11:23:26.918Z,9.07
2018-01-28T11:25:55.429Z,11.47
2018-01-28T11:28:23.797Z,13.93
2018-01-28T11:30:52.183Z,10.77
2018-01-28T11:33:20.659Z,11.50
2018-01-28T11:35:49.062Z,9.20
2018-01-28T11:38:17.712Z,7.30
2018-01-28T11:40:46.293Z,7.23
2018-01-28T11:43:14.677Z,12.40
2018-01-28T11:45:42.717Z,8.60
2018-01-28T11:48:11.369Z,9.68
2018-01-28T11:50:40.070Z,12.80
2018-01-28T11:53:09.427Z,6.50
2018-01-28T11:55:38.859Z,9.27
2018-01-28T11:58:07.233Z,9.33
2018-01-28T12:00:35.923Z,8.00
2018-01-28T12:03:05.118Z,10.50
2018-01-28T12:05:33.534Z,7.67
2018-01-28T12:08:02.178Z,9.23
2018-01-28T12:10:30.791Z,13.00
2018-01-28T12:13:00.141Z,10.43
2018-01-28T12:15:28.504Z,11.17
2018-01-28T12:17:56.880Z,8.13
2018-01-28T12:20:25.394Z,12.33
2018-01-28T12:22:53.774Z,13.20
2018-01-28T12:25:22.161Z,9.10
2018-01-28T12:27:51.264Z,10.33
2018-01-28T12:30:19.634Z,11.57
2018-01-28T12:32:47.859Z,10.23
2018-01-28T12:35:17.317Z,6.43
2018-01-28T12:37:45.812Z,9.47
2018-01-28T12:40:14.188Z,12.37
2018-01-28T12:42:43.330Z,7.43
2018-01-28T12:45:12.131Z,9.27
2018-01-28T12:47:40.539Z,6.80
2018-01-28T12:50:09.890Z,7.17
2018-01-28T12:52:38.291Z,11.07
2018-01-28T12:55:06.948Z,9.77
2018-01-28T12:57:35.325Z,9.80
2018-01-28T13:00:03.871Z,6.17
2018-01-28T13:02:33.013Z,7.53
2018-01-28T13:05:02.429Z,10.00
2018-01-28T13:07:31.010Z,6.57
2018-01-28T13:09:59.409Z,5.67
2018-01-28T13:12:27.774Z,5.03
2018-01-28T13:14:56.418Z,5.10
2018-01-28T13:17:25.078Z,5.75
2018-01-28T13:19:53.474Z,7.60
2018-01-28T13:22:22.110Z,6.18
2018-01-28T13:24:50.862Z,7.68
2018-01-28T13:27:19.366Z,8.57
2018-01-28T13:29:47.738Z,7.27
2018-01-28T13:32:16.126Z,6.47
2018-01-28T13:34:44.776Z,5.00
2018-01-28T13:37:13.154Z,5.47
2018-01-28T13:39:41.735Z,4.80
2018-01-28T13:42:10.389Z,6.30
2018-01-28T13:44:39.161Z,5.47
2018-01-28T13:47:07.846Z,5.40
2018-01-28T13:49:37.110Z,6.77
2018-01-28T13:52:05.477Z,4.30
2018-01-28T13:54:34.893Z,6.80
2018-01-28T13:57:03.257Z,4.70
2018-01-28T13:59:31.977Z,3.70
2018-01-28T14:02:00.687Z,3.00
2018-01-28T14:04:29.817Z,3.92
2018-01-28T14:06:58.295Z,4.60
2018-01-28T14:09:26.947Z,4.23
2018-01-28T14:11:56.089Z,4.90
2018-01-28T14:14:24.496Z,4.10
2018-01-28T14:16:52.937Z,2.83
2018-01-28T14:19:21.916Z,4.67
2018-01-28T14:21:50.610Z,3.53
2018-01-28T14:24:19.124Z,3.70
2018-01-28T14:26:47.760Z,4.32
2018-01-28T14:29:16.370Z,2.97
2018-01-28T14:31:45.390Z,3.70
2018-01-28T14:34:13.972Z,5.70
2018-01-28T14:36:42.354Z,3.77
2018-01-28T14:39:10.482Z,2.60
2018-01-28T14:41:39.702Z,2.90
2018-01-28T14:44:08.926Z,3.92
2018-01-28T14:46:37.298Z,3.70
2018-01-28T14:49:07.121Z,3.53
2018-01-28T14:51:35.318Z,2.53
2018-01-28T14:54:03.782Z,1.95
2018-01-28T14:56:32.446Z,2.43
2018-01-28T14:59:01.086Z,2.25
2018-01-28T15:01:29.469Z,4.10
2018-01-28T15:03:57.864Z,3.30
2018-01-28T15:06:26.241Z,2.80
2018-01-28T15:08:54.629Z,2.08
2018-01-28T15:11:23.273Z,1.67
2018-01-28T15:13:51.269Z,2.43
2018-01-28T15:16:19.653Z,2.27
2018-01-28T15:18:48.033Z,2.30
2018-01-28T15:21:16.541Z,2.90
2018-01-28T15:23:45.695Z,3.23
2018-01-28T15:26:14.073Z,1.77
2018-01-28T15:28:42.867Z,2.10
2018-01-28T15:31:12.297Z,1.92
2018-01-28T15:33:40.952Z,2.67
2018-01-28T15:36:09.360Z,1.40
2018-01-28T15:38:38.016Z,1.77
2018-01-28T15:41:06.386Z,1.43
2018-01-28T15:43:35.290Z,1.42
2018-01-28T15:46:04.480Z,1.60
2018-01-28T15:48:32.854Z,1.87
2018-01-28T15:51:01.038Z,2.00
2018-01-28T15:53:29.394Z,1.20
2018-01-28T15:55:58.357Z,3.10
2018-01-28T15:58:27.034Z,4.15
2018-01-28T16:00:57.080Z,3.23
2018-01-28T16:03:25.473Z,3.40
2018-01-28T16:05:54.502Z,3.10
2018-01-28T16:08:23.317Z,2.93
2018-01-28T16:10:52.462Z,2.57
2018-01-28T16:13:20.935Z,3.43
2018-01-28T16:15:50.350Z,4.78
2018-01-28T16:18:19.006Z,3.10
2018-01-28T16:20:48.410Z,7.35
2018-01-28T16:23:16.885Z,3.20
2018-01-28T16:25:44.793Z,4.17
2018-01-28T16:28:13.201Z,2.70
2018-01-28T16:30:41.774Z,5.03
2018-01-28T16:33:10.145Z,2.30
2018-01-28T16:35:38.363Z,2.63
2018-01-28T16:38:07.809Z,2.67
2018-01-28T16:40:36.186Z,2.50
2018-01-28T16:43:05.033Z,3.53
2018-01-28T16:45:33.703Z,2.70
2018-01-28T16:48:02.159Z,1.67
2018-01-28T16:50:30.534Z,1.53
2018-01-28T16:52:59.680Z,2.13
2018-01-28T16:55:28.092Z,1.73
2018-01-28T16:57:56.462Z,2.40
2018-01-28T17:00:25.370Z,4.18
2018-01-28T17:02:53.988Z,4.00
2018-01-28T17:05:22.634Z,1.95
2018-01-28T17:07:52.020Z,2.80
2018-01-28T17:10:22.440Z,2.33
2018-01-28T17:12:51.096Z,2.65
2018-01-28T17:15:19.282Z,2.63
2018-01-28T17:17:48.717Z,2.87
2018-01-28T17:20:17.090Z,4.20
2018-01-28T17:22:45.570Z,3.60
2018-01-28T17:25:14.062Z,3.67
2018-01-28T17:27:43.194Z,4.20
2018-01-28T17:30:11.832Z,2.58
2018-01-28T17:32:40.575Z,3.00
2018-01-28T17:35:14.706Z,3.70
2018-01-28T17:37:43.474Z,2.40
2018-01-28T17:40:11.676Z,3.17
2018-01-28T17:42:40.062Z,3.67
2018-01-28T17:45:08.449Z,9.53
2018-01-28T17:47:36.864Z,3.27
2018-01-28T17:50:05.874Z,2.83
2018-01-28T17:52:34.514Z,6.03
2018-01-28T17:55:03.125Z,2.30
2018-01-28T17:57:31.792Z,4.77
2018-01-28T18:00:01.023Z,3.47
2018-01-28T18:02:29.609Z,10.67
2018-01-28T18:04:59.030Z,5.47
2018-01-28T18:07:28.432Z,3.15
2018-01-28T18:09:57.118Z,2.83
2018-01-28T18:12:25.713Z,3.43
2018-01-28T18:14:54.085Z,3.80
2018-01-28T18:17:23.066Z,1.80
2018-01-28T18:19:52.481Z,3.90
2018-01-28T18:22:20.963Z,2.37
2018-01-28T18:24:48.861Z,2.83
2018-01-28T18:27:17.595Z,2.33
2018-01-28T18:29:47.002Z,3.83
2018-01-28T18:32:15.375Z,3.33
2018-01-28T18:34:43.763Z,3.73
2018-01-28T18:37:12.155Z,2.07
2018-01-28T18:39:40.522Z,3.00
2018-01-28T18:42:08.915Z,2.60
2018-01-28T18:44:37.552Z,4.70
2018-01-28T18:47:06.184Z,2.58
2018-01-28T18:49:33.954Z,1.90
2018-01-28T18:52:02.598Z,2.73
2018-01-28T18:54:31.269Z,4.43
2018-01-28T18:56:59.648Z,3.25
2018-01-28T18:59:27.979Z,4.33
2018-01-28T19:01:56.546Z,4.20
2018-01-28T19:04:25.191Z,3.27
2018-01-28T19:06:54.505Z,2.40
2018-01-28T19:09:23.939Z,2.30
2018-01-28T19:11:52.317Z,3.10
2018-01-28T19:14:20.693Z,2.43
2018-01-28T19:16:49.061Z,2.53
2018-01-28T19:19:17.703Z,2.83
2018-01-28T19:21:46.336Z,2.42
2018-01-28T19:24:14.793Z,4.50
2018-01-28T19:26:43.352Z,2.60
2018-01-28T19:29:11.994Z,2.17
2018-01-28T19:31:40.625Z,4.65
2018-01-28T19:34:09.007Z,2.43
2018-01-28T19:36:37.094Z,3.17
2018-01-28T19:39:04.826Z,4.30
2018-01-28T19:41:33.202Z,2.77
2018-01-28T19:44:02.090Z,2.50
2018-01-28T19:46:30.678Z,3.23
2018-01-28T19:48:59.214Z,3.73
2018-01-28T19:51:27.644Z,1.87
2018-01-28T19:53:56.274Z,3.73
2018-01-28T19:56:24.922Z,4.50
2018-01-28T19:58:54.321Z,4.00
2018-01-28T20:01:23.377Z,3.10
2018-01-28T20:03:51.846Z,4.20
2018-01-28T20:06:20.461Z,5.73
2018-01-28T20:08:48.833Z,3.40
2018-01-28T20:11:17.281Z,2.90
2018-01-28T20:13:45.917Z,2.97
2018-01-28T20:16:15.317Z,2.08
2018-01-28T20:18:43.697Z,2.40
2018-01-28T20:21:13.097Z,7.23
2018-01-28T20:23:41.571Z,3.33
2018-01-28T20:26:10.998Z,2.22
2018-01-28T20:28:39.653Z,3.25
2018-01-28T20:31:08.043Z,2.83
2018-01-28T20:33:37.269Z,2.53
2018-01-28T20:36:05.692Z,3.10
2018-01-28T20:38:34.837Z,5.30
2018-01-28T20:41:03.514Z,4.45
2018-01-28T20:43:31.881Z,4.50
2018-01-28T20:46:00.478Z,2.17
2018-01-28T20:48:28.869Z,3.17
2018-01-28T20:50:57.252Z,3.33
2018-01-28T20:53:25.632Z,3.30
2018-01-28T20:58:28.212Z,3.60
2018-01-28T21:00:56.617Z,3.47
2018-01-28T21:03:25.266Z,2.72
2018-01-28T21:05:53.629Z,4.73
2018-01-28T21:08:22.013Z,3.83
2018-01-28T21:10:50.386Z,5.23
2018-01-28T21:13:18.754Z,3.40
2018-01-28T21:15:47.134Z,3.80
2018-01-28T21:18:15.828Z,4.50
2018-01-28T21:20:44.446Z,3.10
2018-01-28T21:23:13.135Z,7.18
2018-01-28T21:25:42.309Z,18.07
2018-01-28T21:28:10.970Z,10.10
2018-01-28T21:30:39.353Z,5.30
2018-01-28T21:33:08.758Z,3.67
2018-01-28T21:35:38.154Z,4.75
2018-01-28T21:38:07.558Z,9.65
2018-01-28T21:40:35.965Z,10.50
2018-01-28T21:43:04.588Z,6.07
2018-01-28T21:45:33.738Z,7.43
2018-01-28T21:48:02.186Z,3.47
2018-01-28T21:50:31.602Z,3.73
2018-01-28T21:53:00.302Z,4.75
2018-01-28T21:55:29.441Z,4.17
2018-01-28T21:57:58.333Z,4.60
2018-01-28T22:00:26.990Z,3.17
2018-01-28T22:02:55.621Z,6.57
2018-01-28T22:05:23.990Z,3.17
2018-01-28T22:07:52.241Z,3.20
2018-01-28T22:10:20.689Z,3.08
2018-01-28T22:12:49.063Z,3.37
2018-01-28T22:15:17.445Z,4.33
2018-01-28T22:17:45.837Z,2.80
2018-01-28T22:20:14.471Z,3.75
2018-01-28T22:22:43.692Z,3.10
2018-01-28T22:25:12.063Z,5.00
2018-01-28T22:27:40.744Z,5.47
2018-01-28T22:30:09.426Z,4.85
2018-01-28T22:32:37.841Z,4.30
2018-01-28T22:35:06.478Z,4.60
2018-01-28T22:37:34.877Z,3.73
2018-01-28T22:40:03.251Z,5.23
2018-01-28T22:42:31.921Z,2.67
2018-01-28T22:45:00.114Z,4.30
2018-01-28T22:47:28.150Z,4.05
2018-01-28T22:49:56.790Z,4.72
2018-01-28T22:52:25.257Z,4.97
2018-01-28T22:54:53.628Z,5.73
2018-01-28T22:57:22.153Z,4.30
2018-01-28T22:59:50.705Z,5.17
2018-01-28T23:02:19.338Z,2.90
2018-01-28T23:04:47.981Z,4.33
2018-01-28T23:07:16.433Z,2.90
2018-01-28T23:09:45.825Z,3.55
2018-01-28T23:12:14.224Z,3.30
2018-01-28T23:14:42.977Z,2.80
2018-01-28T23:17:11.571Z,4.75
2018-01-28T23:19:39.864Z,4.00
2018-01-28T23:22:08.252Z,3.23
2018-01-28T23:24:36.072Z,6.60
2018-01-28T23:27:05.522Z,3.30
2018-01-28T23:29:33.918Z,4.00
2018-01-28T23:32:03.166Z,4.70
2018-01-28T23:34:31.542Z,3.83
2018-01-28T23:36:59.737Z,3.23
2018-01-28T23:39:28.206Z,3.22
2018-01-28T23:41:55.933Z,3.47
2018-01-28T23:44:24.577Z,2.58
2018-01-28T23:46:53.319Z,2.00
2018-01-28T23:49:22.411Z,2.83
2018-01-28T23:51:50.793Z,2.93
2018-01-28T23:54:19.437Z,6.85
2018-01-28T23:56:47.617Z,3.33
2018-01-28T23:59:15.493Z,3.15
